createdAt,value
2023-01-30T00:02:07.568Z,14.20
2023-01-30T00:04:35.407Z,14.20
2023-01-30T00:07:03.841Z,14.20
2023-01-30T00:09:31.549Z,14.20
2023-01-30T00:12:00.630Z,14.20
2023-01-30T00:14:28.348Z,14.20
2023-01-30T00:16:56.075Z,14.20
2023-01-30T00:19:24.138Z,14.20
2023-01-30T00:21:51.811Z,14.20
2023-01-30T00:24:19.963Z,14.20
2023-01-30T00:26:47.769Z,14.20
2023-01-30T00:29:16.852Z,14.20
2023-01-30T00:31:44.944Z,14.20
2023-01-30T00:34:13.033Z,14.20
2023-01-30T00:36:40.704Z,14.20
2023-01-30T00:39:08.406Z,14.20
2023-01-30T00:41:50.049Z,14.20
2023-01-30T00:44:36.841Z,14.20
2023-01-30T00:47:08.839Z,14.20
2023-01-30T00:49:36.730Z,14.20
2023-01-30T00:52:04.907Z,14.20
2023-01-30T00:54:33.086Z,14.20
2023-01-30T00:57:00.791Z,14.20
2023-01-30T00:59:29.813Z,14.20
2023-01-30T01:01:58.147Z,14.30
2023-01-30T01:04:26.111Z,14.30
2023-01-30T01:06:54.211Z,14.20
2023-01-30T01:09:21.886Z,14.30
2023-01-30T01:11:49.892Z,14.20
2023-01-30T01:14:17.567Z,14.30
2023-01-30T01:16:47.062Z,14.30
2023-01-30T01:19:14.724Z,14.30
2023-01-30T01:21:42.977Z,14.30
2023-01-30T01:24:11.119Z,14.30
2023-01-30T01:26:39.213Z,14.30
2023-01-30T01:29:07.053Z,14.30
2023-01-30T01:31:35.605Z,14.30
2023-01-30T01:34:04.760Z,14.30
2023-01-30T01:36:52.771Z,14.30
2023-01-30T01:39:20.641Z,14.30
2023-01-30T01:41:47.837Z,14.40
2023-01-30T01:44:17.051Z,14.30
2023-01-30T01:46:46.425Z,14.40
2023-01-30T01:49:17.655Z,14.30
2023-01-30T01:51:50.149Z,14.30
2023-01-30T01:54:20.059Z,14.40
2023-01-30T01:56:48.403Z,14.40
2023-01-30T01:59:20.419Z,14.40
2023-01-30T02:01:48.799Z,14.40
2023-01-30T02:04:38.727Z,14.40
2023-01-30T02:07:06.813Z,14.40
2023-01-30T02:09:34.468Z,14.30
2023-01-30T02:12:02.172Z,14.30
2023-01-30T02:14:30.239Z,14.40
2023-01-30T02:16:57.964Z,14.40
2023-01-30T02:19:31.327Z,14.40
2023-01-30T02:22:29.127Z,14.40
2023-01-30T02:25:05.643Z,14.40
2023-01-30T02:28:06.208Z,14.40
2023-01-30T02:30:44.876Z,14.40
2023-01-30T02:33:15.071Z,14.40
2023-01-30T02:35:45.573Z,14.40
2023-01-30T02:38:20.604Z,14.40
2023-01-30T02:40:53.693Z,14.40
2023-01-30T02:43:25.890Z,14.40
2023-01-30T02:45:57.752Z,14.40
2023-01-30T02:48:28.264Z,14.50
2023-01-30T02:50:58.883Z,14.50
2023-01-30T02:53:26.624Z,14.50
2023-01-30T02:55:54.276Z,14.50
2023-01-30T02:58:22.803Z,14.50
2023-01-30T03:01:20.293Z,14.50
2023-01-30T03:03:56.038Z,14.50
2023-01-30T03:06:37.873Z,14.40
2023-01-30T03:09:10.820Z,14.50
2023-01-30T03:11:42.407Z,14.40
2023-01-30T03:14:13.256Z,14.50
2023-01-30T03:16:42.662Z,14.50
2023-01-30T03:19:12.831Z,14.50
2023-01-30T03:21:42.291Z,14.50
2023-01-30T03:24:10.701Z,14.50
2023-01-30T03:26:40.683Z,14.50
2023-01-30T03:29:08.643Z,14.50
2023-01-30T03:31:36.637Z,14.50
2023-01-30T03:34:06.625Z,14.60
2023-01-30T03:36:34.488Z,14.60
2023-01-30T03:39:02.361Z,14.60
2023-01-30T03:41:30.270Z,14.60
2023-01-30T03:43:58.540Z,14.60
2023-01-30T03:46:26.455Z,14.60
2023-01-30T03:48:54.747Z,14.60
2023-01-30T03:51:23.915Z,14.60
2023-01-30T03:53:52.098Z,14.60
2023-01-30T03:56:19.961Z,14.60
2023-01-30T03:58:47.875Z,14.70
2023-01-30T04:01:15.796Z,14.70
2023-01-30T04:03:43.481Z,14.60
2023-01-30T04:06:11.519Z,14.70
2023-01-30T04:08:40.526Z,14.70
2023-01-30T04:11:08.227Z,14.70
2023-01-30T04:13:36.028Z,14.70
2023-01-30T04:16:17.679Z,14.70
2023-01-30T04:18:45.899Z,14.70
2023-01-30T04:21:14.589Z,14.70
2023-01-30T04:23:44.331Z,14.70
2023-01-30T04:26:12.214Z,14.80
2023-01-30T04:28:40.283Z,14.70
2023-01-30T04:31:08.015Z,14.80
2023-01-30T04:33:36.519Z,14.80
2023-01-30T04:36:04.932Z,14.80
2023-01-30T04:38:33.340Z,14.80
2023-01-30T04:41:02.722Z,14.80
2023-01-30T04:43:30.694Z,14.80
2023-01-30T04:45:58.541Z,14.80
2023-01-30T04:48:27.057Z,14.80
2023-01-30T04:50:55.823Z,14.80
2023-01-30T04:53:24.497Z,14.80
2023-01-30T04:55:52.453Z,14.80
2023-01-30T04:58:22.181Z,14.80
2023-01-30T05:00:50.224Z,14.80
2023-01-30T05:03:18.623Z,14.90
2023-01-30T05:05:47.540Z,14.90
2023-01-30T05:08:15.688Z,14.90
2023-01-30T05:10:43.390Z,14.80
2023-01-30T05:13:11.545Z,14.90
2023-01-30T05:15:41.990Z,14.90
2023-01-30T05:18:10.010Z,14.90
2023-01-30T05:20:38.189Z,14.90
2023-01-30T05:23:05.859Z,14.90
2023-01-30T05:25:33.853Z,14.90
2023-01-30T05:28:01.598Z,14.80
2023-01-30T05:30:29.804Z,14.90
2023-01-30T05:33:00.139Z,14.80
2023-01-30T05:35:28.413Z,14.80
2023-01-30T05:37:56.100Z,14.80
2023-01-30T05:40:23.791Z,14.80
2023-01-30T05:42:51.453Z,14.80
2023-01-30T05:45:19.992Z,14.80
2023-01-30T05:47:52.668Z,14.80
2023-01-30T05:50:23.222Z,14.80
2023-01-30T05:52:51.057Z,14.80
2023-01-30T05:55:19.132Z,14.80
2023-01-30T05:57:47.493Z,14.80
2023-01-30T06:00:16.451Z,14.80
2023-01-30T06:02:44.953Z,14.80
2023-01-30T06:05:12.753Z,14.80
2023-01-30T06:07:42.167Z,14.80
2023-01-30T06:10:11.079Z,14.80
2023-01-30T06:12:39.202Z,14.80
2023-01-30T06:15:07.813Z,14.80
2023-01-30T06:17:35.899Z,14.80
2023-01-30T06:20:03.730Z,14.80
2023-01-30T06:22:31.496Z,14.80
2023-01-30T06:25:01.260Z,14.70
2023-01-30T06:27:29.238Z,14.70
2023-01-30T06:29:57.548Z,14.80
2023-01-30T06:32:25.437Z,14.70
2023-01-30T06:34:53.795Z,14.70
2023-01-30T06:37:21.731Z,14.70
2023-01-30T06:39:49.978Z,14.70
2023-01-30T06:42:19.094Z,14.70
2023-01-30T06:44:47.260Z,14.70
2023-01-30T06:47:15.031Z,14.70
2023-01-30T06:49:42.947Z,14.70
2023-01-30T06:52:11.567Z,14.70
2023-01-30T06:54:39.599Z,14.70
2023-01-30T06:57:08.267Z,14.70
2023-01-30T06:59:37.315Z,14.70
2023-01-30T07:02:05.532Z,14.60
2023-01-30T07:04:33.344Z,14.70
2023-01-30T07:07:01.475Z,14.70
2023-01-30T07:09:29.228Z,14.70
2023-01-30T07:11:57.356Z,14.70
2023-01-30T07:14:25.164Z,14.70
2023-01-30T07:16:54.891Z,14.60
2023-01-30T07:19:22.995Z,14.70
2023-01-30T07:21:51.648Z,14.70
2023-01-30T07:24:19.556Z,14.70
2023-01-30T07:26:49.231Z,14.70
2023-01-30T07:29:17.800Z,14.60
2023-01-30T07:31:45.684Z,14.70
2023-01-30T07:34:15.225Z,14.70
2023-01-30T07:36:42.984Z,14.70
2023-01-30T07:39:11.265Z,14.70
2023-01-30T07:41:39.126Z,14.70
2023-01-30T07:44:08.078Z,14.70
2023-01-30T07:46:36.288Z,14.70
2023-01-30T07:49:04.938Z,14.70
2023-01-30T07:51:34.157Z,14.70
2023-01-30T07:54:03.991Z,14.80
2023-01-30T07:56:32.119Z,14.80
2023-01-30T07:59:00.339Z,14.80
2023-01-30T08:01:28.365Z,14.80
2023-01-30T08:03:56.380Z,14.80
2023-01-30T08:06:24.673Z,14.80
2023-01-30T08:08:53.941Z,14.90
2023-01-30T08:11:22.031Z,14.90
2023-01-30T08:13:50.027Z,14.90
2023-01-30T08:16:18.373Z,14.90
2023-01-30T08:18:46.269Z,14.90
2023-01-30T08:21:14.677Z,14.90
2023-01-30T08:23:42.429Z,15.00
2023-01-30T08:26:11.918Z,15.00
2023-01-30T08:28:40.577Z,15.00
2023-01-30T08:31:11.390Z,15.00
2023-01-30T08:33:39.281Z,15.00
2023-01-30T08:36:07.762Z,15.10
2023-01-30T08:38:36.084Z,15.10
2023-01-30T08:41:06.676Z,15.20
2023-01-30T08:43:36.309Z,15.20
2023-01-30T08:46:04.187Z,15.20
2023-01-30T08:48:47.449Z,15.20
2023-01-30T08:51:16.850Z,15.30
2023-01-30T08:53:44.978Z,15.30
2023-01-30T08:56:12.697Z,15.20
2023-01-30T08:58:44.167Z,15.30
2023-01-30T09:01:11.957Z,15.30
2023-01-30T09:03:39.786Z,15.40
2023-01-30T09:06:07.655Z,15.50
2023-01-30T09:08:35.433Z,15.50
2023-01-30T09:11:04.737Z,15.50
2023-01-30T09:13:32.596Z,15.50
2023-01-30T09:16:02.143Z,15.50
2023-01-30T09:18:29.871Z,15.50
2023-01-30T09:21:04.286Z,15.50
2023-01-30T09:23:32.136Z,15.40
2023-01-30T09:26:00.731Z,15.40
2023-01-30T09:28:28.395Z,15.40
2023-01-30T09:30:57.857Z,15.50
2023-01-30T09:33:26.892Z,15.50
2023-01-30T09:35:54.932Z,15.70
2023-01-30T09:38:22.628Z,15.80
2023-01-30T09:41:05.262Z,15.80
2023-01-30T09:43:46.394Z,15.70
2023-01-30T09:46:20.191Z,15.80
2023-01-30T09:48:55.264Z,15.70
2023-01-30T09:51:49.312Z,15.80
2023-01-30T09:54:20.219Z,15.90
2023-01-30T09:56:48.269Z,15.90
2023-01-30T09:59:20.514Z,15.90
2023-01-30T10:01:52.635Z,13.70
2023-01-30T10:04:25.310Z,11.70
2023-01-30T10:06:59.699Z,10.80
2023-01-30T10:09:33.080Z,10.30
2023-01-30T10:12:11.756Z,11.30
2023-01-30T10:15:03.657Z,12.30
2023-01-30T10:17:35.540Z,13.20
2023-01-30T10:20:23.983Z,13.80
2023-01-30T10:22:58.657Z,14.20
2023-01-30T10:25:29.816Z,14.50
2023-01-30T10:28:00.193Z,14.80
2023-01-30T10:30:28.231Z,15.10
2023-01-30T10:32:58.208Z,15.30
2023-01-30T10:35:31.513Z,15.40
2023-01-30T10:38:01.057Z,15.40
2023-01-30T10:40:31.019Z,15.40
2023-01-30T10:43:03.486Z,15.40
2023-01-30T10:45:36.615Z,15.50
2023-01-30T10:48:13.560Z,15.60
2023-01-30T10:50:49.331Z,15.90
2023-01-30T10:53:18.286Z,16.10
2023-01-30T10:55:48.597Z,16.30
2023-01-30T10:58:18.766Z,16.50
2023-01-30T11:00:49.557Z,16.80
2023-01-30T11:03:22.425Z,16.90
2023-01-30T11:05:52.959Z,16.90
2023-01-30T11:08:23.784Z,17.00
2023-01-30T11:10:51.893Z,17.10
2023-01-30T11:13:21.125Z,17.10
2023-01-30T11:15:52.627Z,17.40
2023-01-30T11:19:08.194Z,17.50
2023-01-30T11:21:14.389Z,17.70
2023-01-30T11:23:43.036Z,17.80
2023-01-30T11:26:18.680Z,17.90
2023-01-30T11:28:49.396Z,18.10
2023-01-30T11:31:31.538Z,18.20
2023-01-30T11:34:07.568Z,18.30
2023-01-30T11:36:37.303Z,18.30
2023-01-30T11:39:06.002Z,18.40
2023-01-30T11:41:34.046Z,18.60
2023-01-30T11:44:02.984Z,18.90
2023-01-30T11:46:32.553Z,19.10
2023-01-30T11:49:46.571Z,19.50
2023-01-30T11:51:55.151Z,19.70
2023-01-30T11:54:27.270Z,19.90
2023-01-30T11:56:56.242Z,20.00
2023-01-30T11:59:26.799Z,20.00
2023-01-30T12:01:56.239Z,19.90
2023-01-30T12:04:24.743Z,19.70
2023-01-30T12:07:05.111Z,19.50
2023-01-30T12:09:35.023Z,19.30
2023-01-30T12:12:04.645Z,19.20
2023-01-30T12:14:38.265Z,19.20
2023-01-30T12:17:11.473Z,19.00
2023-01-30T12:19:47.902Z,19.10
2023-01-30T12:22:22.144Z,18.90
2023-01-30T12:24:54.782Z,18.70
2023-01-30T12:27:30.656Z,18.60
2023-01-30T12:30:01.828Z,18.50
2023-01-30T12:32:31.681Z,18.30
2023-01-30T12:34:59.894Z,18.30
2023-01-30T12:37:36.841Z,18.20
2023-01-30T12:40:09.055Z,18.20
2023-01-30T12:42:59.471Z,18.20
2023-01-30T12:45:28.086Z,18.20
2023-01-30T12:48:10.141Z,18.60
2023-01-30T12:50:45.607Z,19.00
2023-01-30T12:53:23.927Z,19.50
2023-01-30T12:55:57.982Z,20.20
2023-01-30T12:58:27.599Z,20.60
2023-01-30T13:01:13.868Z,20.70
2023-01-30T13:03:43.173Z,20.70
2023-01-30T13:06:25.795Z,20.80
2023-01-30T13:09:06.161Z,20.70
2023-01-30T13:11:41.747Z,20.50
2023-01-30T13:14:12.644Z,20.30
2023-01-30T13:16:52.246Z,20.10
2023-01-30T13:19:23.069Z,19.90
2023-01-30T13:21:56.628Z,19.80
2023-01-30T13:24:29.189Z,19.70
2023-01-30T13:26:57.766Z,19.60
2023-01-30T13:29:29.727Z,19.50
2023-01-30T13:31:59.485Z,19.40
2023-01-30T13:34:29.530Z,19.30
2023-01-30T13:36:59.994Z,19.40
2023-01-30T13:39:35.208Z,19.40
2023-01-30T13:42:03.986Z,19.50
2023-01-30T13:44:32.807Z,19.50
2023-01-30T13:47:04.450Z,19.40
2023-01-30T13:49:37.654Z,19.30
2023-01-30T13:52:09.090Z,19.10
2023-01-30T13:54:44.297Z,19.00
2023-01-30T13:57:18.527Z,18.90
2023-01-30T14:00:09.472Z,18.80
2023-01-30T14:02:37.351Z,18.70
2023-01-30T14:05:06.017Z,18.60
2023-01-30T14:07:35.025Z,18.60
2023-01-30T14:10:15.660Z,18.40
2023-01-30T14:12:44.983Z,18.30
2023-01-30T14:15:27.348Z,18.30
2023-01-30T14:18:03.167Z,18.30
2023-01-30T14:20:31.396Z,18.20
2023-01-30T14:22:59.783Z,18.20
2023-01-30T14:25:44.793Z,18.10
2023-01-30T14:28:49.885Z,18.00
2023-01-30T14:31:51.310Z,18.00
2023-01-30T14:34:43.305Z,18.00
2023-01-30T14:37:30.594Z,17.90
2023-01-30T14:39:59.641Z,17.90
2023-01-30T14:42:29.829Z,17.80
2023-01-30T14:44:59.062Z,17.80
2023-01-30T14:47:33.875Z,17.80
2023-01-30T14:50:18.516Z,17.70
2023-01-30T14:52:49.422Z,17.70
2023-01-30T14:55:19.463Z,17.70
2023-01-30T14:57:55.693Z,17.60
2023-01-30T15:00:26.368Z,17.60
2023-01-30T15:02:55.270Z,17.60
2023-01-30T15:05:28.795Z,17.60
2023-01-30T15:07:58.819Z,17.60
2023-01-30T15:10:38.508Z,17.50
2023-01-30T15:13:33.191Z,17.60
2023-01-30T15:16:12.053Z,17.60
2023-01-30T15:18:55.441Z,17.60
2023-01-30T15:21:48.111Z,17.50
2023-01-30T15:24:25.662Z,17.50
2023-01-30T15:26:57.680Z,17.70
2023-01-30T15:30:01.496Z,17.80
2023-01-30T15:32:31.757Z,17.80
2023-01-30T15:35:00.833Z,17.80
2023-01-30T15:37:35.791Z,17.70
2023-01-30T15:40:24.146Z,17.70
2023-01-30T15:42:54.222Z,17.60
2023-01-30T15:45:30.288Z,17.60
2023-01-30T15:48:13.978Z,17.50
2023-01-30T15:50:46.235Z,17.50
2023-01-30T15:53:14.979Z,17.50
2023-01-30T15:55:42.903Z,17.50
2023-01-30T15:58:11.646Z,17.40
2023-01-30T16:00:41.952Z,17.40
2023-01-30T16:03:27.790Z,17.40
2023-01-30T16:05:56.822Z,17.30
2023-01-30T16:08:26.222Z,17.30
2023-01-30T16:10:54.286Z,17.30
2023-01-30T16:13:23.275Z,17.20
2023-01-30T16:15:54.165Z,17.20
2023-01-30T16:18:30.543Z,17.10
2023-01-30T16:21:02.489Z,17.20
2023-01-30T16:23:32.175Z,17.10
2023-01-30T16:26:00.125Z,17.10
2023-01-30T16:28:28.800Z,17.10
2023-01-30T16:31:00.897Z,17.00
2023-01-30T16:33:35.689Z,17.00
2023-01-30T16:36:04.074Z,17.00
2023-01-30T16:38:43.024Z,17.00
2023-01-30T16:41:32.755Z,17.00
2023-01-30T16:44:19.989Z,17.00
2023-01-30T16:46:50.150Z,17.00
2023-01-30T16:49:22.005Z,16.90
2023-01-30T16:51:50.915Z,16.90
2023-01-30T16:54:21.134Z,16.80
2023-01-30T16:56:50.533Z,16.80
2023-01-30T16:59:20.652Z,16.80
2023-01-30T17:01:48.701Z,16.80
2023-01-30T17:04:23.853Z,16.70
2023-01-30T17:06:57.440Z,16.70
2023-01-30T17:09:46.927Z,16.70
2023-01-30T17:12:37.825Z,16.70
2023-01-30T17:15:28.310Z,16.60
2023-01-30T17:17:56.273Z,16.60
2023-01-30T17:20:25.595Z,16.60
2023-01-30T17:22:53.931Z,16.60
2023-01-30T17:25:27.485Z,16.50
2023-01-30T17:27:55.975Z,16.50
2023-01-30T17:30:23.841Z,16.50
2023-01-30T17:32:51.723Z,16.50
2023-01-30T17:35:20.096Z,16.40
2023-01-30T17:37:59.633Z,16.50
2023-01-30T17:40:34.360Z,16.40
2023-01-30T17:43:02.296Z,16.40
2023-01-30T17:45:30.185Z,16.40
2023-01-30T17:47:58.244Z,16.40
2023-01-30T17:50:26.523Z,16.30
2023-01-30T17:52:55.910Z,16.30
2023-01-30T17:55:23.833Z,16.30
2023-01-30T17:57:51.796Z,16.30
2023-01-30T18:00:21.469Z,16.20
2023-01-30T18:02:49.523Z,16.20
2023-01-30T18:05:19.285Z,16.20
2023-01-30T18:07:46.955Z,16.20
2023-01-30T18:10:17.928Z,16.20
2023-01-30T18:12:46.951Z,16.20
2023-01-30T18:15:16.382Z,16.20
2023-01-30T18:17:47.312Z,16.10
2023-01-30T18:20:17.575Z,16.10
2023-01-30T18:22:46.103Z,16.10
2023-01-30T18:25:15.067Z,16.10
2023-01-30T18:27:45.126Z,16.10
2023-01-30T18:30:17.021Z,16.10
2023-01-30T18:32:52.424Z,16.10
2023-01-30T18:35:21.253Z,16.00
2023-01-30T18:37:49.968Z,16.10
2023-01-30T18:40:18.903Z,16.10
2023-01-30T18:42:49.068Z,16.00
2023-01-30T18:45:17.457Z,16.10
2023-01-30T18:47:46.071Z,16.00
2023-01-30T18:50:14.113Z,16.00
2023-01-30T18:52:43.128Z,16.00
2023-01-30T18:55:11.374Z,15.90
2023-01-30T18:57:39.739Z,16.00
2023-01-30T19:00:10.895Z,15.90
2023-01-30T19:02:39.296Z,15.90
2023-01-30T19:05:08.092Z,15.90
2023-01-30T19:07:36.685Z,15.90
2023-01-30T19:10:04.935Z,15.90
2023-01-30T19:12:50.308Z,15.90
2023-01-30T19:15:19.677Z,15.90
2023-01-30T19:17:48.064Z,15.90
2023-01-30T19:20:16.126Z,15.90
2023-01-30T19:22:44.469Z,15.90
2023-01-30T19:25:12.504Z,15.90
2023-01-30T19:27:40.814Z,15.90
2023-01-30T19:30:09.914Z,15.90
2023-01-30T19:32:39.268Z,16.00
2023-01-30T19:35:08.339Z,15.90
2023-01-30T19:37:38.458Z,15.90
2023-01-30T19:40:09.988Z,15.90
2023-01-30T19:42:40.367Z,15.90
2023-01-30T19:45:13.625Z,15.80
2023-01-30T19:47:43.078Z,15.80
2023-01-30T19:50:12.931Z,15.90
2023-01-30T19:52:42.188Z,15.80
2023-01-30T19:55:11.319Z,15.90
2023-01-30T19:57:39.333Z,15.80
2023-01-30T20:00:08.951Z,15.80
2023-01-30T20:02:37.637Z,15.80
2023-01-30T20:05:07.776Z,15.80
2023-01-30T20:10:21.778Z,15.90
2023-01-30T20:12:50.196Z,15.80
2023-01-30T20:15:18.296Z,15.80
2023-01-30T20:17:46.607Z,15.80
2023-01-30T20:20:19.355Z,15.80
2023-01-30T20:22:49.024Z,15.70
2023-01-30T20:25:17.514Z,15.80
2023-01-30T20:27:46.086Z,15.80
2023-01-30T20:30:15.415Z,15.70
2023-01-30T20:32:44.245Z,15.80
2023-01-30T20:35:12.067Z,15.70
2023-01-30T20:37:41.129Z,15.80
2023-01-30T20:40:10.847Z,15.80
2023-01-30T20:42:38.581Z,15.70
2023-01-30T20:45:08.488Z,15.70
2023-01-30T20:47:37.190Z,15.70
2023-01-30T20:50:05.446Z,15.70
2023-01-30T20:52:35.749Z,15.70
2023-01-30T20:55:05.562Z,15.70
2023-01-30T20:57:33.522Z,15.70
2023-01-30T21:00:02.223Z,15.70
2023-01-30T21:02:30.282Z,15.70
2023-01-30T21:04:58.686Z,15.70
2023-01-30T21:07:26.533Z,15.70
2023-01-30T21:09:54.937Z,15.60
2023-01-30T21:12:24.236Z,15.60
2023-01-30T21:14:52.284Z,15.60
2023-01-30T21:17:20.176Z,15.60
2023-01-30T21:19:48.034Z,15.60
2023-01-30T21:22:16.020Z,15.60
2023-01-30T21:24:43.950Z,15.60
2023-01-30T21:27:12.348Z,15.60
2023-01-30T21:29:44.158Z,15.60
2023-01-30T21:32:12.096Z,15.60
2023-01-30T21:34:40.353Z,15.60
2023-01-30T21:37:25.959Z,15.60
2023-01-30T21:40:11.323Z,15.60
2023-01-30T21:42:57.513Z,15.60
2023-01-30T21:45:26.881Z,15.60
2023-01-30T21:47:55.306Z,15.60
2023-01-30T21:50:23.309Z,15.60
2023-01-30T21:52:51.212Z,15.50
2023-01-30T21:55:19.483Z,15.60
2023-01-30T21:57:47.412Z,15.60
2023-01-30T22:00:15.936Z,15.50
2023-01-30T22:02:45.593Z,15.60
2023-01-30T22:05:13.718Z,15.60
2023-01-30T22:07:41.691Z,15.60
2023-01-30T22:10:11.131Z,15.60
2023-01-30T22:12:40.177Z,15.60
2023-01-30T22:15:09.368Z,15.60
2023-01-30T22:17:37.444Z,15.60
2023-01-30T22:20:09.931Z,15.50
2023-01-30T22:22:37.776Z,15.50
2023-01-30T22:25:06.141Z,15.50
2023-01-30T22:27:34.022Z,15.60
2023-01-30T22:30:01.924Z,15.60
2023-01-30T22:32:29.770Z,15.60
2023-01-30T22:34:58.285Z,15.50
2023-01-30T22:37:27.585Z,15.50
2023-01-30T22:39:55.764Z,15.50
2023-01-30T22:42:23.572Z,15.50
2023-01-30T22:44:51.888Z,15.60
2023-01-30T22:47:20.059Z,15.60
2023-01-30T22:49:48.093Z,15.60
2023-01-30T22:52:16.185Z,15.60
2023-01-30T22:54:45.416Z,15.50
2023-01-30T22:57:13.349Z,15.50
2023-01-30T22:59:42.847Z,15.50
2023-01-30T23:02:10.826Z,15.50
2023-01-30T23:04:39.152Z,15.50
2023-01-30T23:07:13.260Z,15.50
2023-01-30T23:09:41.201Z,15.50
2023-01-30T23:12:27.228Z,15.50
2023-01-30T23:14:55.154Z,15.50
2023-01-30T23:17:41.145Z,15.50
2023-01-30T23:20:10.319Z,15.50
2023-01-30T23:22:38.314Z,15.50
2023-01-30T23:25:06.808Z,15.50
2023-01-30T23:27:36.741Z,15.40
2023-01-30T23:30:05.242Z,15.40
2023-01-30T23:32:33.266Z,15.40
2023-01-30T23:35:01.233Z,15.40
2023-01-30T23:37:43.013Z,15.40
2023-01-30T23:40:12.231Z,15.30
2023-01-30T23:42:41.804Z,15.30
2023-01-30T23:45:10.718Z,15.30
2023-01-30T23:47:38.859Z,15.30
2023-01-30T23:50:07.401Z,15.30
2023-01-30T23:52:35.279Z,15.30
2023-01-30T23:55:03.682Z,15.30
2023-01-30T23:57:31.882Z,15.30
